Time;durP1;ratioP1;P1;durP2;ratioP2;P2;SDS_P1;SDS_P2;PMS_P1;PMS_P2;Temp;Humidity;BMP_temperature;BMP_pressure;BME280_temperature;BME280_humidity;BME280_pressure;Samples;Min_cycle;Max_cycle;Signal;HPM_P1;HPM_P2
2021/04/25 00:00:45;;;;;;;13.05;6.40;;;7.30;61.90;;;;;;5054820;28;20064;-56
2021/04/25 00:03:12;;;;;;;;;;;7.30;62.20;;;;;;5054872;28;20053;-56
2021/04/25 00:05:38;;;;;;;10.65;5.70;;;7.30;62.40;;;;;;5054670;28;20311;-57
2021/04/25 00:08:07;;;;;;;12.25;5.82;;;7.40;62.10;;;;;;5055072;28;20041;-56
2021/04/25 00:10:33;;;;;;;;;;;7.40;62.00;;;;;;5054991;28;20072;-54
2021/04/25 00:13:00;;;;;;;15.77;6.47;;;7.30;62.30;;;;;;5055055;28;19920;-54
2021/04/25 00:15:27;;;;;;;10.30;5.68;;;7.40;62.60;;;;;;5054906;28;20572;-57
2021/04/25 00:17:54;;;;;;;11.45;5.97;;;7.30;62.60;;;;;;5054428;28;20095;-55
2021/04/25 00:20:21;;;;;;;11.18;5.65;;;7.30;63.20;;;;;;5054755;28;20533;-55
2021/04/25 00:22:49;;;;;;;13.23;6.07;;;7.20;63.40;;;;;;5054398;28;20445;-54
2021/04/25 00:25:17;;;;;;;13.18;5.20;;;7.20;63.80;;;;;;5054340;28;20075;-53
2021/04/25 00:27:44;;;;;;;13.93;6.45;;;7.20;63.80;;;;;;5054445;28;20041;-54
2021/04/25 00:30:15;;;;;;;15.43;6.80;;;7.10;64.10;;;;;;5054145;28;20048;-56
2021/04/25 00:32:41;;;;;;;11.23;6.05;;;7.10;64.00;;;;;;5053889;28;20056;-51
2021/04/25 00:35:09;;;;;;;11.93;5.88;;;7.20;64.00;;;;;;5054357;28;20049;-52
2021/04/25 00:37:36;;;;;;;10.80;5.90;;;7.00;64.30;;;;;;5054034;28;20103;-57
2021/04/25 00:40:06;;;;;;;11.15;5.45;;;7.10;64.40;;;;;;5054172;28;20106;-52
2021/04/25 00:42:33;;;;;;;13.88;6.28;;;7.00;65.00;;;;;;5054285;28;20407;-54
2021/04/25 00:45:03;;;;;;;11.23;5.30;;;6.90;65.40;;;;;;5054338;28;20064;-54
2021/04/25 00:47:29;;;;;;;11.23;5.63;;;6.90;65.30;;;;;;5053687;28;20114;-55
2021/04/25 00:49:56;;;;;;;;;;;6.90;65.30;;;;;;5054552;28;20495;-54
2021/04/25 00:52:23;;;;;;;10.90;5.85;;;6.90;65.30;;;;;;5053720;28;19944;-56
2021/04/25 00:54:50;;;;;;;14.82;6.70;;;7.00;65.00;;;;;;5054253;28;20056;-54
2021/04/25 00:57:18;;;;;;;12.02;6.57;;;6.80;66.20;;;;;;5053813;28;20087;-55
2021/04/25 00:59:44;;;;;;;12.80;6.40;;;6.80;65.90;;;;;;5053808;28;20079;-54
2021/04/25 01:02:11;;;;;;;14.35;6.15;;;6.70;66.30;;;;;;5053376;28;20084;-54
2021/04/25 01:04:38;;;;;;;12.15;5.93;;;6.80;66.10;;;;;;5054089;28;20114;-52
2021/04/25 01:07:05;;;;;;;17.83;6.13;;;6.80;66.10;;;;;;5054295;28;20076;-54
2021/04/25 01:09:32;;;;;;;13.65;6.32;;;6.80;65.90;;;;;;5055654;28;20067;-58
2021/04/25 01:11:59;;;;;;;10.85;6.07;;;6.90;65.50;;;;;;5056370;28;20057;-55
2021/04/25 01:14:26;;;;;;;11.38;6.07;;;7.00;65.30;;;;;;5053830;28;20407;-53
2021/04/25 01:16:53;;;;;;;;;;;7.00;65.10;;;;;;5053562;28;20080;-53
2021/04/25 01:19:19;;;;;;;14.32;5.72;;;7.00;64.90;;;;;;5039393;28;19928;-54
2021/04/25 01:21:55;;;;;;;12.77;7.18;;;7.00;65.00;;;;;;5053398;28;20384;-58
2021/04/25 01:24:21;;;;;;;14.48;6.07;;;6.90;65.40;;;;;;5053688;28;20048;-63
2021/04/25 01:26:48;;;;;;;12.30;6.32;;;6.80;66.10;;;;;;5053731;28;20453;-57
2021/04/25 01:29:15;;;;;;;;;;;6.60;66.70;;;;;;5053429;28;20044;-57
2021/04/25 01:31:41;;;;;;;14.02;6.15;;;6.60;66.90;;;;;;5045602;28;20342;-58
2021/04/25 01:34:08;;;;;;;13.93;7.03;;;6.50;67.30;;;;;;5047329;28;20483;-53
2021/04/25 01:36:35;;;;;;;;;;;6.50;67.30;;;;;;5053341;28;20075;-55
2021/04/25 01:39:03;;;;;;;14.10;6.07;;;6.60;67.10;;;;;;5053253;28;19974;-55
2021/04/25 01:41:30;;;;;;;11.20;6.45;;;6.50;67.40;;;;;;5053095;28;20049;-57
2021/04/25 01:43:56;;;;;;;;;;;6.40;68.00;;;;;;5052560;28;20077;-57
2021/04/25 01:46:23;;;;;;;12.23;6.40;;;6.60;67.90;;;;;;5053044;28;19982;-55
2021/04/25 01:48:52;;;;;;;13.82;6.10;;;6.60;67.70;;;;;;5052673;28;20549;-57
2021/04/25 01:51:19;;;;;;;10.60;5.85;;;6.60;67.50;;;;;;5052575;28;20099;-56
2021/04/25 01:53:45;;;;;;;;;;;6.70;67.20;;;;;;5053378;28;20055;-57
2021/04/25 01:56:12;;;;;;;11.98;6.85;;;6.70;66.90;;;;;;5053026;28;20383;-56
2021/04/25 01:58:39;;;;;;;;;;;6.80;66.80;;;;;;5052566;28;20126;-55
2021/04/25 02:01:05;;;;;;;14.07;6.35;;;6.80;66.70;;;;;;5052812;28;20399;-58
2021/04/25 02:03:32;;;;;;;11.43;6.20;;;6.90;66.60;;;;;;5052556;28;20076;-57
2021/04/25 02:06:03;;;;;;;14.75;6.13;;;6.90;66.10;;;;;;5052397;28;20048;-58
2021/04/25 02:08:30;;;;;;;12.80;6.13;;;7.00;65.90;;;;;;5052846;28;20106;-57
2021/04/25 02:10:56;;;;;;;12.90;6.85;;;7.00;65.90;;;;;;5052667;28;20065;-56
2021/04/25 02:13:23;;;;;;;14.15;6.25;;;7.00;66.30;;;;;;5052308;28;20098;-55
2021/04/25 02:15:50;;;;;;;10.57;5.53;;;7.10;65.50;;;;;;5068066;28;20095;-55
2021/04/25 02:18:16;;;;;;;12.10;6.18;;;7.00;65.40;;;;;;5052537;28;20072;-52
2021/04/25 02:20:43;;;;;;;14.10;6.68;;;7.10;65.40;;;;;;5051970;28;20083;-53
2021/04/25 02:23:10;;;;;;;12.23;6.68;;;7.10;65.10;;;;;;5051061;28;20051;-53
2021/04/25 02:25:36;;;;;;;;;;;7.00;65.40;;;;;;5051785;28;20078;-53
2021/04/25 02:28:03;;;;;;;14.77;5.80;;;7.00;65.40;;;;;;5051650;28;20002;-52
2021/04/25 02:30:33;;;;;;;13.73;6.30;;;7.00;65.50;;;;;;5052124;28;20068;-58
2021/04/25 02:33:00;;;;;;;13.85;5.28;;;7.00;65.50;;;;;;5047478;28;20484;-57
2021/04/25 02:35:30;;;;;;;12.25;5.95;;;7.00;65.40;;;;;;5043069;28;20067;-57
2021/04/25 02:37:58;;;;;;;12.20;6.07;;;7.10;65.40;;;;;;5051827;28;20053;-58
2021/04/25 02:40:29;;;;;;;11.40;5.50;;;7.10;65.10;;;;;;5050823;28;20455;-56
2021/04/25 02:42:57;;;;;;;12.00;5.72;;;7.20;64.70;;;;;;5051720;28;20102;-58
2021/04/25 02:45:25;;;;;;;14.38;6.80;;;7.20;64.40;;;;;;5051960;28;20049;-58
2021/04/25 02:47:58;;;;;;;12.43;5.43;;;7.10;64.60;;;;;;5052022;28;20056;-58
2021/04/25 02:50:29;;;;;;;13.13;5.93;;;7.20;64.40;;;;;;5052053;28;20498;-57
2021/04/25 02:52:56;;;;;;;13.43;6.30;;;7.00;64.10;;;;;;5051867;28;20049;-57
2021/04/25 02:55:23;;;;;;;13.00;5.53;;;6.90;64.70;;;;;;5052001;28;20065;-57
2021/04/25 02:57:50;;;;;;;11.70;5.75;;;6.70;65.00;;;;;;5051300;28;20048;-57
2021/04/25 03:00:21;;;;;;;11.13;5.43;;;6.70;65.20;;;;;;5051606;28;20069;-57
2021/04/25 03:02:47;;;;;;;11.90;5.18;;;6.70;65.00;;;;;;5051731;28;20089;-56
2021/04/25 03:05:14;;;;;;;;;;;6.50;65.20;;;;;;5051856;28;20434;-57
2021/04/25 03:07:42;;;;;;;12.45;5.57;;;6.40;65.60;;;;;;5051829;28;19925;-57
2021/04/25 03:10:10;;;;;;;14.98;5.28;;;6.40;65.80;;;;;;5051622;28;20049;-58
2021/04/25 03:12:37;;;;;;;11.75;6.07;;;6.40;65.50;;;;;;5051461;28;20102;-56
2021/04/25 03:15:06;;;;;;;10.10;5.28;;;6.40;65.30;;;;;;5051783;28;20041;-57
2021/04/25 03:17:32;;;;;;;8.73;4.63;;;6.40;65.00;;;;;;5051897;28;20057;-57
2021/04/25 03:20:00;;;;;;;9.02;3.88;;;6.40;65.10;;;;;;5051790;28;20077;-54
2021/04/25 03:22:28;;;;;;;13.23;5.15;;;6.30;65.30;;;;;;5051365;28;20049;-54
2021/04/25 03:24:54;;;;;;;10.13;5.20;;;6.20;65.40;;;;;;5051909;28;20507;-56
2021/04/25 03:27:21;;;;;;;;;;;6.20;65.30;;;;;;5051275;28;20049;-55
2021/04/25 03:29:47;;;;;;;10.40;4.40;;;6.20;65.10;;;;;;5051575;28;19920;-56
2021/04/25 03:32:14;;;;;;;10.88;4.82;;;6.10;65.40;;;;;;5051444;28;20099;-56
2021/04/25 03:34:41;;;;;;;;;;;6.00;65.70;;;;;;5052570;28;20491;-56
2021/04/25 03:37:07;;;;;;;11.30;5.07;;;5.90;65.60;;;;;;5051348;28;20347;-56
2021/04/25 03:39:34;;;;;;;10.10;4.25;;;5.90;65.60;;;;;;5051466;28;20060;-56
2021/04/25 03:42:01;;;;;;;11.35;4.72;;;6.10;65.30;;;;;;5051128;28;20047;-56
2021/04/25 03:44:27;;;;;;;;;;;6.10;64.20;;;;;;5052240;28;20045;-53
2021/04/25 03:46:54;;;;;;;10.52;4.18;;;6.00;64.50;;;;;;5051394;28;19921;-56
2021/04/25 03:49:21;;;;;;;10.77;4.35;;;6.00;64.40;;;;;;5051356;28;20049;-56
2021/04/25 03:51:52;;;;;;;;;;;5.90;64.20;;;;;;5051826;28;20049;-55
2021/04/25 03:54:18;;;;;;;10.52;4.70;;;5.90;64.20;;;;;;5051580;28;19982;-55
2021/04/25 03:56:45;;;;;;;;;;;5.80;64.40;;;;;;5050236;28;20388;-56
2021/04/25 03:59:12;;;;;;;10.60;4.50;;;5.80;64.20;;;;;;5050916;28;19964;-55
2021/04/25 04:01:38;;;;;;;10.77;4.00;;;5.90;63.60;;;;;;5051183;28;20104;-59
2021/04/25 04:04:05;;;;;;;9.75;4.72;;;6.00;63.40;;;;;;5051265;28;20052;-58
2021/04/25 04:06:32;;;;;;;10.40;4.07;;;6.00;62.90;;;;;;5053218;28;20068;-57
2021/04/25 04:08:59;;;;;;;9.15;4.75;;;6.00;63.10;;;;;;5054681;28;20492;-58
2021/04/25 04:11:25;;;;;;;;;;;5.90;63.20;;;;;;5055234;28;20068;-57
2021/04/25 04:13:52;;;;;;;10.18;4.22;;;5.70;64.00;;;;;;5054832;28;19929;-57
2021/04/25 04:16:20;;;;;;;7.15;3.90;;;5.80;63.90;;;;;;5055000;28;20056;-56
2021/04/25 04:18:46;;;;;;;;;;;5.90;63.40;;;;;;5053999;28;20557;-57
2021/04/25 04:21:13;;;;;;;10.50;4.57;;;5.80;64.20;;;;;;5054422;28;20337;-54
2021/04/25 04:23:39;;;;;;;11.85;4.75;;;5.90;63.10;;;;;;5054401;28;20077;-58
2021/04/25 04:26:06;;;;;;;;;;;6.00;62.60;;;;;;5054647;28;20083;-57
2021/04/25 04:28:32;;;;;;;12.07;4.72;;;6.00;62.50;;;;;;5054481;28;19951;-55
2021/04/25 04:30:59;;;;;;;12.77;4.43;;;5.90;62.60;;;;;;5054498;28;20095;-58
2021/04/25 04:33:26;;;;;;;10.77;4.00;;;5.80;62.70;;;;;;5054532;28;20045;-57
2021/04/25 04:35:53;;;;;;;14.60;4.20;;;5.80;61.90;;;;;;5054261;28;20078;-58
2021/04/25 04:38:19;;;;;;;9.65;4.30;;;5.80;62.80;;;;;;5054218;28;20083;-57
2021/04/25 04:40:46;;;;;;;9.60;4.22;;;5.90;61.80;;;;;;5054345;28;20036;-56
2021/04/25 04:43:12;;;;;;;10.18;3.90;;;5.90;61.60;;;;;;5054439;28;20049;-58
2021/04/25 04:45:39;;;;;;;7.70;3.42;;;6.00;61.20;;;;;;5054089;28;20131;-56
2021/04/25 04:48:06;;;;;;;10.38;3.90;;;5.90;61.70;;;;;;5053949;28;20082;-58
2021/04/25 04:50:32;;;;;;;8.52;3.88;;;6.00;61.40;;;;;;5054033;28;20106;-55
2021/04/25 04:52:59;;;;;;;;;;;6.00;61.60;;;;;;5054033;28;20045;-56
2021/04/25 04:55:26;;;;;;;10.35;3.92;;;6.00;61.40;;;;;;5054031;28;20379;-56
2021/04/25 04:57:52;;;;;;;;;;;6.10;61.20;;;;;;5069830;28;20068;-55
2021/04/25 05:00:19;;;;;;;13.30;4.43;;;6.00;61.60;;;;;;5052449;28;19959;-57
2021/04/25 05:02:45;;;;;;;9.88;4.07;;;6.10;61.60;;;;;;5052711;28;20050;-56
2021/04/25 05:05:12;;;;;;;7.25;3.72;;;6.00;61.90;;;;;;5039849;28;20464;-56
2021/04/25 05:07:39;;;;;;;10.85;3.92;;;6.00;62.30;;;;;;5068808;28;20487;-57
2021/04/25 05:10:06;;;;;;;;;;;6.00;62.40;;;;;;5054290;28;20080;-55
2021/04/25 05:12:33;;;;;;;9.98;3.92;;;6.00;62.10;;;;;;5053940;28;19964;-56
2021/04/25 05:15:00;;;;;;;8.85;3.95;;;6.10;62.60;;;;;;5053419;28;20037;-55
2021/04/25 05:17:27;;;;;;;;;;;6.20;62.00;;;;;;5054287;28;20049;-55
2021/04/25 05:19:53;;;;;;;10.32;4.07;;;6.20;61.80;;;;;;5041199;28;19932;-57
2021/04/25 05:22:21;;;;;;;12.00;4.25;;;6.20;62.30;;;;;;5053061;28;20091;-57
2021/04/25 05:24:47;;;;;;;10.60;4.55;;;6.30;61.30;;;;;;5053645;28;20095;-57
2021/04/25 05:27:14;;;;;;;12.57;4.10;;;6.30;61.60;;;;;;5049791;28;20038;-57
2021/04/25 05:29:40;;;;;;;;;;;6.20;61.70;;;;;;5045009;28;20041;-56
2021/04/25 05:32:07;;;;;;;12.63;4.93;;;6.10;62.30;;;;;;5053136;28;19982;-57
2021/04/25 05:34:35;;;;;;;7.25;3.35;;;6.20;61.70;;;;;;5053356;28;20495;-58
2021/04/25 05:37:02;;;;;;;11.57;4.07;;;6.20;61.20;;;;;;5052728;28;20094;-58
2021/04/25 05:39:29;;;;;;;11.88;4.32;;;6.30;61.20;;;;;;5053194;28;20523;-59
2021/04/25 05:41:55;;;;;;;7.93;3.60;;;6.20;61.60;;;;;;5053316;28;20076;-58
2021/04/25 05:44:22;;;;;;;13.25;4.60;;;6.30;61.50;;;;;;5052761;28;20053;-59
2021/04/25 05:46:49;;;;;;;;;;;6.20;60.80;;;;;;5050639;28;20045;-55
2021/04/25 05:49:16;;;;;;;8.43;3.88;;;6.20;61.20;;;;;;5021505;28;19967;-57
2021/04/25 05:51:42;;;;;;;7.88;3.42;;;6.10;61.50;;;;;;5052005;28;20049;-57
2021/04/25 05:54:09;;;;;;;9.32;3.75;;;6.10;61.70;;;;;;5052467;28;20415;-56
2021/04/25 05:56:35;;;;;;;12.30;3.88;;;6.20;61.80;;;;;;5052184;28;20102;-57
2021/04/25 05:59:02;;;;;;;;;;;6.10;61.40;;;;;;5052094;28;20106;-57
2021/04/25 06:01:29;;;;;;;9.35;3.22;;;6.10;61.00;;;;;;5052236;28;20034;-54
2021/04/25 06:03:55;;;;;;;;;;;6.20;60.80;;;;;;5052977;28;20083;-55
2021/04/25 06:06:22;;;;;;;12.20;4.30;;;6.20;60.90;;;;;;5051650;28;19928;-59
2021/04/25 06:08:48;;;;;;;;;;;6.30;60.60;;;;;;5052758;28;20116;-56
2021/04/25 06:11:15;;;;;;;10.52;3.45;;;6.20;60.50;;;;;;5051854;28;19974;-56
2021/04/25 06:13:42;;;;;;;8.23;3.50;;;6.20;61.10;;;;;;5052183;28;20075;-58
2021/04/25 06:16:08;;;;;;;12.18;3.55;;;6.20;61.10;;;;;;5052216;28;20048;-54
2021/04/25 06:18:35;;;;;;;9.82;3.80;;;6.20;60.60;;;;;;5048618;28;20435;-54
2021/04/25 06:21:02;;;;;;;9.88;3.60;;;6.20;60.30;;;;;;5051204;28;20052;-57
2021/04/25 06:23:28;;;;;;;;;;;6.10;60.00;;;;;;5047722;28;20098;-54
2021/04/25 06:25:56;;;;;;;11.07;3.30;;;6.10;60.20;;;;;;5051701;28;19998;-53
2021/04/25 06:28:22;;;;;;;11.90;3.83;;;6.10;59.70;;;;;;5050888;28;20049;-56
2021/04/25 06:30:49;;;;;;;;;;;6.20;59.00;;;;;;5051745;28;20436;-56
2021/04/25 06:33:38;;;;;;;12.72;3.78;;;6.20;58.70;;;;;;4684304;28;10003681;-58
2021/04/25 06:36:05;;;;;;;9.25;3.30;;;6.20;59.50;;;;;;5049376;28;20090;-56
2021/04/25 06:38:32;;;;;;;8.63;3.25;;;6.10;59.40;;;;;;5041030;28;20135;-59
2021/04/25 06:40:58;;;;;;;12.38;3.55;;;6.20;59.80;;;;;;5036454;28;20069;-57
2021/04/25 06:43:25;;;;;;;;;;;6.20;59.30;;;;;;5033633;28;20068;-57
2021/04/25 06:45:51;;;;;;;13.23;3.60;;;6.20;59.20;;;;;;5043795;28;20005;-58
2021/04/25 06:48:18;;;;;;;13.63;4.15;;;6.20;59.20;;;;;;5048445;28;20122;-58
2021/04/25 06:50:45;;;;;;;10.20;3.58;;;6.20;59.20;;;;;;5049016;28;20099;-58
2021/04/25 06:53:11;;;;;;;;;;;6.20;59.40;;;;;;5049772;28;20080;-59
2021/04/25 06:55:38;;;;;;;11.82;3.10;;;6.30;60.50;;;;;;5049239;28;19921;-58
2021/04/25 06:58:05;;;;;;;8.80;2.90;;;6.30;59.00;;;;;;5044122;28;20073;-58
2021/04/25 07:00:32;;;;;;;11.07;3.55;;;6.40;59.40;;;;;;5041560;28;20041;-58
2021/04/25 07:03:03;;;;;;;10.43;3.80;;;6.30;58.70;;;;;;5048946;28;20047;-58
2021/04/25 07:05:30;;;;;;;12.40;3.67;;;6.30;58.60;;;;;;5046678;28;20399;-58
2021/04/25 07:07:57;;;;;;;9.60;3.38;;;6.30;59.00;;;;;;5049085;28;20041;-59
2021/04/25 07:10:25;;;;;;;12.25;3.75;;;6.30;58.20;;;;;;5048485;28;20068;-58
2021/04/25 07:12:52;;;;;;;8.43;3.00;;;6.30;58.20;;;;;;5049497;28;20155;-59
2021/04/25 07:15:19;;;;;;;10.95;3.10;;;6.30;58.20;;;;;;5049082;28;20102;-59
2021/04/25 07:17:45;;;;;;;;;;;6.40;58.60;;;;;;5048865;28;20068;-60
2021/04/25 07:20:13;;;;;;;11.38;3.83;;;6.40;58.50;;;;;;5048791;28;19961;-59
2021/04/25 07:22:40;;;;;;;11.75;3.92;;;6.40;57.80;;;;;;5048258;28;20063;-59
2021/04/25 07:25:08;;;;;;;16.08;4.18;;;6.40;58.00;;;;;;5049043;28;20041;-60
2021/04/25 07:27:36;;;;;;;12.40;3.58;;;6.30;58.40;;;;;;5048964;28;20106;-59
2021/04/25 07:30:08;;;;;;;12.55;3.80;;;6.40;59.00;;;;;;5048324;28;20041;-58
2021/04/25 07:32:36;;;;;;;15.57;4.60;;;6.40;58.70;;;;;;5048375;28;20407;-59
2021/04/25 07:35:08;;;;;;;11.80;3.90;;;6.50;58.50;;;;;;5048571;28;20045;-58
2021/04/25 07:37:39;;;;;;;14.30;4.15;;;6.50;58.70;;;;;;5048530;28;20041;-59
2021/04/25 07:40:06;;;;;;;;;;;6.60;58.10;;;;;;5049388;28;20643;-59
2021/04/25 07:42:34;;;;;;;11.95;3.50;;;6.60;57.80;;;;;;5054452;28;19952;-60
2021/04/25 07:45:03;;;;;;;7.97;3.38;;;6.80;57.00;;;;;;5055017;28;20053;-58
2021/04/25 07:47:30;;;;;;;22.40;6.43;;;6.80;57.10;;;;;;5054351;28;20037;-58
2021/04/25 07:49:57;;;;;;;17.50;4.60;;;6.90;58.10;;;;;;5054939;28;20043;-60
2021/04/25 07:52:23;;;;;;;15.95;3.97;;;6.90;57.40;;;;;;5055409;28;20037;-57
2021/04/25 07:54:50;;;;;;;8.98;3.80;;;6.90;57.30;;;;;;5057681;28;20067;-60
2021/04/25 07:57:16;;;;;;;11.23;3.35;;;7.00;57.00;;;;;;5057225;28;20549;-59
2021/04/25 07:59:48;;;;;;;9.45;3.50;;;7.00;56.80;;;;;;5056345;28;20052;-60
2021/04/25 08:02:15;;;;;;;12.52;3.85;;;7.00;56.70;;;;;;5054354;28;20166;-61
2021/04/25 08:04:41;;;;;;;12.27;3.47;;;6.90;56.90;;;;;;5055004;28;20110;-61
2021/04/25 08:07:08;;;;;;;14.05;3.70;;;6.80;57.00;;;;;;5054189;28;20052;-61
2021/04/25 08:09:34;;;;;;;13.25;4.32;;;6.70;57.30;;;;;;5054494;28;20063;-58
2021/04/25 08:12:02;;;;;;;;;;;6.70;57.10;;;;;;5054871;28;20102;-61
2021/04/25 08:14:29;;;;;;;10.50;3.85;;;6.70;57.40;;;;;;5049376;28;19921;-60
2021/04/25 08:16:55;;;;;;;16.00;3.67;;;6.70;58.00;;;;;;5053961;28;20091;-59
2021/04/25 08:19:22;;;;;;;13.85;4.35;;;6.80;57.30;;;;;;5049036;28;20118;-60
2021/04/25 08:21:48;;;;;;;13.63;3.53;;;6.80;56.80;;;;;;5051116;28;20131;-59
2021/04/25 08:24:15;;;;;;;23.60;5.93;;;6.70;57.40;;;;;;5051918;28;20530;-59
2021/04/25 08:26:42;;;;;;;12.48;3.65;;;6.70;57.30;;;;;;5054425;28;20045;-60
2021/04/25 08:29:08;;;;;;;13.52;4.20;;;6.80;56.70;;;;;;5052117;28;20048;-61
2021/04/25 08:31:35;;;;;;;24.42;7.38;;;6.90;57.20;;;;;;5046257;28;20040;-60
2021/04/25 08:34:02;;;;;;;16.75;4.72;;;7.00;58.00;;;;;;5054170;28;20064;-60
2021/04/25 08:36:29;;;;;;;12.43;3.67;;;7.10;56.90;;;;;;5053992;28;20080;-57
2021/04/25 08:38:58;;;;;;;22.80;5.68;;;7.20;56.20;;;;;;5054158;28;20507;-58
2021/04/25 08:41:25;;;;;;;;;;;7.20;56.40;;;;;;5054311;28;20491;-60
2021/04/25 08:43:53;;;;;;;19.65;4.82;;;7.20;56.30;;;;;;5054014;28;19920;-58
2021/04/25 08:46:22;;;;;;;10.80;4.30;;;7.20;55.70;;;;;;5053674;28;20037;-59
2021/04/25 08:48:51;;;;;;;11.85;3.20;;;7.30;55.80;;;;;;5052305;28;20053;-59
2021/04/25 08:51:19;;;;;;;10.00;3.33;;;7.30;55.70;;;;;;5052824;28;20049;-58
2021/04/25 08:53:47;;;;;;;13.35;4.28;;;7.40;56.40;;;;;;5054086;28;20049;-59
2021/04/25 08:56:17;;;;;;;14.00;3.67;;;7.50;56.10;;;;;;5053585;28;20052;-59
2021/04/25 08:58:44;;;;;;;11.82;3.00;;;7.50;55.10;;;;;;5053678;28;20126;-60
2021/04/25 09:01:11;;;;;;;9.70;3.17;;;7.40;55.20;;;;;;5053170;28;20068;-61
2021/04/25 09:03:39;;;;;;;16.48;3.80;;;7.40;55.60;;;;;;5053826;28;20495;-60
2021/04/25 09:06:07;;;;;;;16.10;3.40;;;7.40;55.60;;;;;;5053718;28;20159;-59
2021/04/25 09:08:52;;;;;;;15.10;3.33;;;7.50;55.40;;;;;;5053253;28;20044;-59
2021/04/25 09:11:26;;;;;;;11.48;3.13;;;7.50;55.60;;;;;;5053345;28;20033;-61
2021/04/25 09:14:14;;;;;;;11.35;3.10;;;7.40;55.70;;;;;;5053390;28;20052;-59
2021/04/25 09:16:45;;;;;;;8.95;2.90;;;7.40;55.80;;;;;;5053154;28;20060;-58
2021/04/25 09:19:13;;;;;;;9.45;3.00;;;7.40;56.00;;;;;;5053602;28;20065;-58
2021/04/25 09:22:12;;;;;;;13.18;3.08;;;7.50;56.10;;;;;;5052972;28;20122;-61
2021/04/25 09:24:39;;;;;;;10.18;2.53;;;7.60;55.40;;;;;;5011137;28;20440;-60
2021/04/25 09:27:05;;;;;;;9.32;3.10;;;7.60;55.20;;;;;;5010805;28;20085;-60
2021/04/25 09:29:50;;;;;;;16.17;4.30;;;7.60;54.80;;;;;;5010765;28;20061;-58
2021/04/25 09:32:19;;;;;;;14.77;3.90;;;7.60;55.50;;;;;;5010617;28;20537;-61
2021/04/25 09:34:46;;;;;;;8.88;2.65;;;7.70;55.20;;;;;;5011086;28;20057;-60
2021/04/25 09:37:18;;;;;;;14.93;3.33;;;7.60;55.50;;;;;;5011051;28;20054;-60
2021/04/25 09:40:02;;;;;;;11.77;3.20;;;7.70;54.40;;;;;;4997691;28;20468;-59
2021/04/25 09:42:31;;;;;;;12.50;3.35;;;7.70;55.30;;;;;;5010405;28;20108;-59
2021/04/25 09:44:59;;;;;;;10.43;3.08;;;7.70;54.70;;;;;;5010722;28;20564;-60
2021/04/25 09:47:33;;;;;;;9.00;3.28;;;7.70;55.70;;;;;;5010371;28;20108;-59
2021/04/25 09:50:03;;;;;;;10.57;3.33;;;7.80;55.30;;;;;;5010590;28;20479;-60
2021/04/25 09:52:34;;;;;;;8.50;2.50;;;7.90;54.90;;;;;;5010319;28;20159;-59
2021/04/25 09:55:25;;;;;;;9.48;3.15;;;8.00;54.20;;;;;;4998346;28;20070;-59
2021/04/25 09:57:56;;;;;;;10.13;2.80;;;8.10;53.90;;;;;;5009969;28;20050;-59
2021/04/25 10:00:40;;;;;;;7.32;3.15;;;8.30;54.70;;;;;;5030811;28;20423;-59
2021/04/25 10:03:10;;;;;;;13.07;3.95;;;8.30;54.40;;;;;;5052053;28;20056;-59
2021/04/25 10:05:54;;;;;;;10.40;3.53;;;8.30;53.70;;;;;;5051122;28;20037;-60
2021/04/25 10:08:30;;;;;;;8.98;3.15;;;8.40;53.30;;;;;;5052153;28;20514;-60
2021/04/25 10:11:07;;;;;;;9.15;2.78;;;8.50;52.70;;;;;;5052113;28;20056;-60
2021/04/25 10:13:37;;;;;;;11.52;3.33;;;8.30;52.00;;;;;;5051744;28;20055;-60
2021/04/25 10:16:04;;;;;;;12.65;3.28;;;8.20;52.60;;;;;;5052626;28;20048;-59
2021/04/25 10:18:31;;;;;;;13.57;3.30;;;8.20;53.50;;;;;;5051890;28;20107;-59
2021/04/25 10:20:57;;;;;;;10.48;3.25;;;8.10;53.80;;;;;;5052291;28;20059;-58
2021/04/25 10:23:24;;;;;;;;;;;8.10;53.60;;;;;;5052548;28;20080;-59
2021/04/25 10:25:51;;;;;;;16.15;3.53;;;8.10;53.90;;;;;;5051977;28;19928;-61
2021/04/25 10:28:42;;;;;;;10.82;3.15;;;8.20;53.90;;;;;;5051708;28;20154;-60
2021/04/25 10:31:17;;;;;;;15.30;3.58;;;8.40;54.60;;;;;;5051762;28;20487;-60
2021/04/25 10:34:17;;;;;;;14.30;3.42;;;8.40;54.00;;;;;;5052110;28;20095;-60
2021/04/25 10:36:44;;;;;;;9.10;3.22;;;8.40;53.30;;;;;;5052159;28;20056;-59
2021/04/25 10:39:40;;;;;;;14.18;3.35;;;8.40;53.70;;;;;;5052039;28;20045;-60
2021/04/25 10:42:29;;;;;;;9.82;2.50;;;8.30;53.90;;;;;;5051496;28;20442;-59
2021/04/25 10:44:59;;;;;;;10.18;3.40;;;8.40;53.20;;;;;;5039167;28;20090;-60
2021/04/25 10:47:26;;;;;;;10.70;3.08;;;8.50;53.00;;;;;;5051412;28;20052;-61
2021/04/25 10:49:54;;;;;;;8.88;2.58;;;8.50;51.80;;;;;;5051717;28;20048;-60
2021/04/25 10:52:26;;;;;;;14.02;3.53;;;8.40;53.10;;;;;;5051452;28;20045;-58
2021/04/25 10:55:14;;;;;;;9.52;2.80;;;8.50;53.20;;;;;;5037696;28;20075;-59
2021/04/25 10:58:07;;;;;;;8.88;3.28;;;8.50;52.20;;;;;;5051375;28;20495;-59
2021/04/25 11:00:36;;;;;;;12.20;3.28;;;8.50;52.30;;;;;;5051469;28;20454;-57
2021/04/25 11:03:09;;;;;;;9.15;2.92;;;8.60;51.90;;;;;;5051374;28;20430;-56
2021/04/25 11:05:35;;;;;;;12.43;2.97;;;8.60;53.30;;;;;;5051590;28;20098;-60
2021/04/25 11:08:12;;;;;;;10.07;3.13;;;8.70;52.50;;;;;;5051472;28;20049;-61
2021/04/25 11:10:51;;;;;;;9.70;2.97;;;8.80;54.30;;;;;;5051284;28;20049;-61
2021/04/25 11:13:57;;;;;;;11.35;3.20;;;8.80;51.90;;;;;;5051679;28;20098;-57
2021/04/25 11:16:22;;;;;;;11.68;3.15;;;8.80;52.00;;;;;;5054861;28;20104;-58
2021/04/25 11:18:49;;;;;;;16.50;3.47;;;8.80;52.10;;;;;;5055601;28;20072;-58
2021/04/25 11:21:47;;;;;;;13.02;3.05;;;8.90;52.30;;;;;;5055342;28;20036;-54
2021/04/25 11:24:13;;;;;;;13.73;3.88;;;9.00;52.00;;;;;;5055169;28;20044;-59
2021/04/25 11:26:41;;;;;;;7.55;2.83;;;9.00;51.90;;;;;;5054849;28;20049;-59
2021/04/25 11:29:13;;;;;;;12.30;2.97;;;9.00;51.10;;;;;;5055308;28;20045;-60
2021/04/25 11:31:55;;;;;;;10.55;3.17;;;9.10;50.90;;;;;;5054072;28;20129;-58
2021/04/25 11:34:28;;;;;;;12.75;3.08;;;9.10;51.00;;;;;;5055571;28;20044;-58
2021/04/25 11:37:01;;;;;;;11.60;3.28;;;9.10;51.30;;;;;;5055583;28;20067;-55
2021/04/25 11:39:39;;;;;;;8.30;2.95;;;9.20;51.00;;;;;;5054770;28;20036;-58
2021/04/25 11:42:07;;;;;;;8.75;2.92;;;9.10;50.40;;;;;;5054170;28;20396;-60
2021/04/25 11:44:37;;;;;;;14.20;3.17;;;9.20;52.00;;;;;;5055394;28;20073;-60
2021/04/25 11:47:12;;;;;;;8.05;2.90;;;9.30;53.00;;;;;;5052760;28;20103;-56
2021/04/25 11:49:48;;;;;;;10.98;3.10;;;9.40;50.90;;;;;;5043139;28;20115;-59
2021/04/25 11:52:36;;;;;;;12.52;2.75;;;9.50;50.40;;;;;;5054642;28;20044;-59
2021/04/25 11:55:06;;;;;;;8.85;2.95;;;9.50;49.90;;;;;;5054616;28;20052;-59
2021/04/25 11:57:36;;;;;;;9.00;3.00;;;9.50;50.10;;;;;;5054799;28;20498;-59
2021/04/25 12:00:12;;;;;;;11.13;2.75;;;9.60;50.20;;;;;;5054831;28;20083;-59
2021/04/25 12:02:44;;;;;;;10.60;3.47;;;9.50;50.90;;;;;;5054720;28;20059;-57
2021/04/25 12:05:14;;;;;;;11.65;2.85;;;9.50;50.70;;;;;;5054884;28;20448;-59
2021/04/25 12:07:45;;;;;;;12.18;3.00;;;9.60;49.60;;;;;;5054423;28;20048;-59
2021/04/25 12:10:32;;;;;;;11.00;3.30;;;9.60;48.70;;;;;;5054579;28;20041;-58
2021/04/25 12:13:09;;;;;;;13.23;3.10;;;9.50;49.20;;;;;;5053423;28;20041;-58
2021/04/25 12:15:50;;;;;;;9.77;3.25;;;9.50;49.20;;;;;;5048014;28;20067;-57
2021/04/25 12:18:22;;;;;;;14.05;3.53;;;9.50;49.90;;;;;;5054180;28;20495;-58
2021/04/25 12:21:09;;;;;;;15.73;3.33;;;9.60;50.50;;;;;;5069759;28;20037;-57
2021/04/25 12:23:42;;;;;;;11.85;3.45;;;9.70;50.20;;;;;;5031391;28;20060;-55
2021/04/25 12:26:13;;;;;;;9.50;2.92;;;9.70;49.30;;;;;;5009800;28;20068;-59
2021/04/25 12:28:45;;;;;;;10.43;2.97;;;9.70;49.20;;;;;;5031806;28;20095;-58
2021/04/25 12:31:18;;;;;;;13.25;3.17;;;9.80;48.90;;;;;;5031911;28;20499;-59
2021/04/25 12:33:56;;;;;;;5.65;2.78;;;9.80;49.30;;;;;;5031944;28;20041;-59
2021/04/25 12:36:28;;;;;;;9.63;3.08;;;9.90;48.20;;;;;;5032006;28;20050;-60
2021/04/25 12:39:00;;;;;;;9.93;2.90;;;9.90;49.10;;;;;;5031730;28;20132;-58
2021/04/25 12:41:38;;;;;;;8.68;2.95;;;9.90;49.40;;;;;;5031706;28;20534;-59
2021/04/25 12:44:10;;;;;;;11.05;3.42;;;10.00;49.50;;;;;;5031202;28;20531;-57
2021/04/25 12:46:37;;;;;;;11.35;3.35;;;10.10;48.40;;;;;;5018675;28;20081;-58
2021/04/25 12:49:08;;;;;;;12.27;3.58;;;10.10;48.30;;;;;;5031473;28;20045;-58
2021/04/25 12:51:40;;;;;;;9.85;2.75;;;10.10;48.50;;;;;;5031148;28;20053;-56
2021/04/25 12:54:12;;;;;;;10.48;3.60;;;10.00;48.30;;;;;;5031635;28;20454;-59
2021/04/25 12:56:53;;;;;;;16.48;3.63;;;10.00;49.00;;;;;;5031742;28;20491;-57
2021/04/25 12:59:30;;;;;;;8.18;2.85;;;10.00;48.00;;;;;;5031343;28;20127;-57
2021/04/25 13:01:56;;;;;;;8.35;3.13;;;9.90;48.30;;;;;;5053803;28;20522;-57
2021/04/25 13:04:27;;;;;;;6.80;3.00;;;9.90;50.00;;;;;;5053648;28;20106;-57
2021/04/25 13:07:28;;;;;;;11.63;3.17;;;10.00;49.20;;;;;;5053431;28;20041;-56
2021/04/25 13:09:54;;;;;;;9.02;2.67;;;10.10;49.30;;;;;;5050327;28;20045;-56
2021/04/25 13:12:25;;;;;;;12.65;3.50;;;10.20;49.30;;;;;;5053401;28;20045;-57